Time;durP1;ratioP1;P1;durP2;ratioP2;P2;SDS_P1;SDS_P2;PMS_P1;PMS_P2;Temp;Humidity;BMP_temperature;BMP_pressure;BME280_temperature;BME280_humidity;BME280_pressure;Samples;Min_cycle;Max_cycle;Signal;HPM_P1;HPM_P2
2024/01/07 00:02:25;;;;;;;2.20;1.63;;;16.30;49.00;;;;;;6134538;23;20132;-83
2024/01/07 00:04:51;;;;;;;1.95;1.55;;;16.30;48.90;;;;;;6133701;23;20182;-83
2024/01/07 00:07:17;;;;;;;2.25;1.80;;;16.30;49.10;;;;;;6110375;23;20283;-83
2024/01/07 00:09:44;;;;;;;2.25;1.77;;;16.30;49.00;;;;;;6109720;23;20144;-83
2024/01/07 00:12:17;;;;;;;2.95;1.70;;;16.20;49.00;;;;;;6134211;23;20140;-83
2024/01/07 00:14:43;;;;;;;1.95;1.75;;;16.30;49.20;;;;;;6084489;23;20156;-82
2024/01/07 00:17:12;;;;;;;2.15;1.77;;;16.20;48.90;;;;;;6109975;23;20137;-83
2024/01/07 00:19:42;;;;;;;1.98;1.80;;;16.30;48.80;;;;;;6109824;23;20191;-82
2024/01/07 00:22:09;;;;;;;1.70;1.60;;;16.20;49.20;;;;;;6109199;23;20479;-82
2024/01/07 00:24:41;;;;;;;2.33;1.70;;;16.20;49.00;;;;;;6135368;23;20143;-82
2024/01/07 00:27:08;;;;;;;1.90;1.70;;;16.20;49.00;;;;;;6109453;23;20199;-82
2024/01/07 00:29:35;;;;;;;2.22;1.88;;;16.30;48.80;;;;;;6142275;22;20236;-83
2024/01/07 00:32:02;;;;;;;1.70;1.60;;;16.30;48.90;;;;;;6149594;23;20204;-83
2024/01/07 00:34:29;;;;;;;2.00;1.65;;;16.20;49.10;;;;;;6174189;23;20241;-82
2024/01/07 00:36:55;;;;;;;1.90;1.70;;;16.20;49.10;;;;;;6173715;23;20198;-82
2024/01/07 00:39:22;;;;;;;2.28;1.83;;;16.20;48.90;;;;;;6150458;23;20145;-82
2024/01/07 00:41:49;;;;;;;2.03;1.80;;;16.20;49.00;;;;;;6149810;23;20146;-83
2024/01/07 00:44:17;;;;;;;2.55;1.83;;;16.20;48.70;;;;;;6149925;23;20146;-83
2024/01/07 00:46:44;;;;;;;2.72;2.08;;;16.20;48.80;;;;;;6150830;23;20158;-83
2024/01/07 00:49:15;;;;;;;2.15;1.80;;;16.20;48.70;;;;;;6150583;23;20153;-83
2024/01/07 00:51:44;;;;;;;2.10;1.90;;;16.20;49.00;;;;;;6173493;23;20228;-83
2024/01/07 00:54:11;;;;;;;2.25;2.00;;;16.30;49.00;;;;;;6150006;23;20146;-82
2024/01/07 00:56:43;;;;;;;2.38;1.70;;;16.10;48.80;;;;;;6175137;23;20727;-82
2024/01/07 00:59:09;;;;;;;2.10;1.77;;;16.20;49.00;;;;;;6151587;23;20216;-83
2024/01/07 01:01:35;;;;;;;1.92;1.60;;;16.10;48.90;;;;;;6150170;23;20236;-82
2024/01/07 01:04:01;;;;;;;1.95;1.67;;;16.20;48.80;;;;;;6174462;23;20130;-83
2024/01/07 01:06:28;;;;;;;2.38;1.92;;;16.30;48.80;;;;;;6169071;23;20221;-83
2024/01/07 01:08:58;;;;;;;1.95;1.75;;;16.20;48.80;;;;;;6144470;23;20177;-84
2024/01/07 01:11:27;;;;;;;2.53;2.10;;;16.20;48.70;;;;;;6144100;23;20143;-82
2024/01/07 01:13:56;;;;;;;1.80;1.70;;;16.20;48.90;;;;;;6145852;23;20135;-82
2024/01/07 01:16:25;;;;;;;2.58;1.90;;;16.30;48.80;;;;;;6146593;23;20147;-83
2024/01/07 01:18:51;;;;;;;1.95;1.60;;;16.20;48.90;;;;;;6097452;23;20154;-82
2024/01/07 01:21:25;;;;;;;2.67;1.92;;;16.20;49.10;;;;;;6146550;23;20158;-82
2024/01/07 01:23:51;;;;;;;2.28;1.90;;;16.20;48.90;;;;;;6147146;23;20147;-82
2024/01/07 01:26:17;;;;;;;3.22;1.90;;;16.10;48.70;;;;;;6147000;23;20189;-82
2024/01/07 01:28:43;;;;;;;2.42;2.00;;;16.20;48.80;;;;;;6172092;23;20131;-83
2024/01/07 01:31:14;;;;;;;2.00;1.80;;;16.20;48.60;;;;;;6146530;23;20143;-82
2024/01/07 01:33:40;;;;;;;1.90;1.70;;;16.20;48.70;;;;;;6172239;23;20158;-82
2024/01/07 01:36:06;;;;;;;1.75;1.65;;;16.20;48.80;;;;;;6171555;23;20134;-82
2024/01/07 01:38:33;;;;;;;2.83;1.95;;;16.10;48.60;;;;;;6146944;23;20166;-83
2024/01/07 01:41:01;;;;;;;1.90;1.65;;;16.20;48.70;;;;;;6146178;23;20135;-83
2024/01/07 01:43:29;;;;;;;1.67;1.58;;;16.20;48.90;;;;;;6146301;23;20146;-83
2024/01/07 02:12:11;;;;;;;1.77;1.52;;;16.10;48.70;;;;;;6207922;22;20468;-82
2024/01/07 02:14:39;;;;;;;2.40;1.98;;;16.10;48.70;;;;;;6139109;23;20159;-84
2024/01/07 02:17:10;;;;;;;2.00;1.77;;;16.20;48.50;;;;;;6130904;23;20309;-83
2024/01/07 02:19:40;;;;;;;2.45;1.90;;;16.10;48.70;;;;;;6169424;23;20154;-86
2024/01/07 02:22:09;;;;;;;2.38;1.90;;;16.10;48.40;;;;;;6169763;23;20230;-84
2024/01/07 02:24:38;;;;;;;2.05;1.85;;;16.20;48.50;;;;;;6169640;23;20150;-84
2024/01/07 02:27:04;;;;;;;2.08;1.83;;;16.10;48.40;;;;;;6170007;23;20147;-84
2024/01/07 02:29:30;;;;;;;2.58;2.17;;;16.10;48.60;;;;;;6170330;23;20182;-83
2024/01/07 02:31:56;;;;;;;2.17;1.83;;;16.20;48.60;;;;;;6170444;23;20143;-83
2024/01/07 02:34:25;;;;;;;2.20;1.65;;;16.10;48.60;;;;;;6169585;23;20146;-83
2024/01/07 02:36:51;;;;;;;2.30;1.70;;;16.10;48.40;;;;;;6193534;23;20135;-83
2024/01/07 02:39:19;;;;;;;1.85;1.73;;;16.10;48.40;;;;;;6167987;23;20169;-83
2024/01/07 02:41:45;;;;;;;2.17;1.75;;;16.10;48.50;;;;;;6167677;23;20151;-83
2024/01/07 02:44:12;;;;;;;2.45;1.95;;;16.10;48.40;;;;;;6168539;23;20150;-83
2024/01/07 02:46:39;;;;;;;2.55;1.95;;;16.10;48.50;;;;;;6168782;23;20178;-83
2024/01/07 02:49:08;;;;;;;2.45;1.70;;;16.10;48.40;;;;;;6167525;23;20173;-83
2024/01/07 02:51:49;;;;;;;3.47;2.00;;;16.10;48.50;;;;;;6167309;23;20139;-83
2024/01/07 02:54:21;;;;;;;2.00;1.80;;;16.10;48.40;;;;;;6192819;23;20213;-83
2024/01/07 02:56:48;;;;;;;2.13;1.67;;;16.10;48.40;;;;;;6166915;23;20139;-83
2024/01/07 02:59:20;;;;;;;3.10;2.00;;;16.10;48.30;;;;;;6168200;23;20142;-83
2024/01/07 03:01:49;;;;;;;2.03;1.80;;;16.00;48.40;;;;;;6192845;23;20215;-83
2024/01/07 03:04:20;;;;;;;3.45;2.13;;;16.10;48.40;;;;;;6193205;23;20135;-84
2024/01/07 03:06:47;;;;;;;2.13;1.88;;;16.10;48.40;;;;;;6168558;23;20238;-83
2024/01/07 03:09:14;;;;;;;2.00;1.80;;;16.00;48.30;;;;;;6195116;23;20139;-83
2024/01/07 03:11:43;;;;;;;2.63;1.80;;;16.10;48.40;;;;;;6169659;23;20143;-83
2024/01/07 03:14:13;;;;;;;2.00;1.75;;;16.10;48.30;;;;;;6172391;23;20151;-82
2024/01/07 03:16:39;;;;;;;2.50;1.90;;;16.10;48.30;;;;;;6168527;23;20190;-83
2024/01/07 03:19:08;;;;;;;2.38;2.10;;;16.10;48.20;;;;;;6168456;23;20168;-83
2024/01/07 03:21:39;;;;;;;2.70;2.03;;;16.10;48.10;;;;;;6168748;23;20146;-83
2024/01/07 03:24:05;;;;;;;2.25;1.90;;;16.10;48.50;;;;;;6142257;23;20241;-83
2024/01/07 03:26:36;;;;;;;2.38;1.90;;;16.10;48.20;;;;;;6167533;23;20197;-83
2024/01/07 03:29:07;;;;;;;2.03;1.83;;;16.10;48.40;;;;;;6167873;23;20291;-82
2024/01/07 03:31:41;;;;;;;2.30;1.85;;;16.10;48.20;;;;;;6142998;23;20229;-82
2024/01/07 03:34:13;;;;;;;2.00;1.90;;;16.10;48.30;;;;;;6145300;23;20196;-83
2024/01/07 03:36:43;;;;;;;2.47;2.28;;;16.00;48.20;;;;;;6145033;23;20170;-83
2024/01/07 03:39:20;;;;;;;1.90;1.70;;;16.10;48.20;;;;;;6145715;23;20159;-82
2024/01/07 03:41:54;;;;;;;2.63;1.90;;;16.00;48.30;;;;;;6144249;23;20157;-82
2024/01/07 03:44:27;;;;;;;2.58;1.90;;;16.00;48.50;;;;;;6169201;23;20160;-83
2024/01/07 03:47:00;;;;;;;3.05;2.10;;;16.00;48.30;;;;;;6172337;23;20158;-83
2024/01/07 03:49:29;;;;;;;1.90;1.70;;;16.10;47.80;;;;;;6149363;23;20229;-83
2024/01/07 03:51:59;;;;;;;2.38;1.80;;;16.10;48.10;;;;;;6175513;23;20143;-82
2024/01/07 03:54:28;;;;;;;2.67;2.28;;;16.00;48.30;;;;;;6150428;23;20166;-83
2024/01/07 03:56:53;;;;;;;2.60;1.90;;;16.00;48.20;;;;;;6173330;23;20151;-83
2024/01/07 04:52:29;;;;;;;2.60;2.10;;;16.00;48.00;;;;;;6214617;22;20450;-82
2024/01/07 04:54:57;;;;;;;2.17;1.90;;;16.10;47.90;;;;;;6181953;23;20150;-83
2024/01/07 04:57:23;;;;;;;2.60;1.95;;;16.00;47.70;;;;;;6155188;23;20134;-84
2024/01/07 04:59:54;;;;;;;3.05;2.20;;;16.00;47.70;;;;;;6156701;23;20143;-83
2024/01/07 05:02:26;;;;;;;2.50;2.10;;;16.00;48.00;;;;;;6130253;23;20149;-83
2024/01/07 05:04:57;;;;;;;2.17;1.95;;;16.00;48.00;;;;;;6155528;23;20178;-82
2024/01/07 05:07:24;;;;;;;3.22;2.30;;;16.00;48.00;;;;;;6130238;23;20154;-83
2024/01/07 05:09:50;;;;;;;2.10;1.77;;;16.00;47.60;;;;;;6155878;23;20592;-82
2024/01/07 05:12:21;;;;;;;2.67;2.03;;;16.00;47.90;;;;;;6156228;23;20188;-83
2024/01/07 05:14:52;;;;;;;2.60;2.33;;;15.90;48.00;;;;;;6130437;23;20597;-83
2024/01/07 05:17:19;;;;;;;2.15;1.90;;;16.00;48.00;;;;;;6154914;23;20150;-83
2024/01/07 05:19:44;;;;;;;2.47;2.10;;;15.90;47.80;;;;;;6155936;23;20443;-83
2024/01/07 05:22:14;;;;;;;2.67;2.03;;;16.00;47.80;;;;;;6156640;23;20176;-83
2024/01/07 05:24:47;;;;;;;2.10;1.83;;;16.00;47.80;;;;;;6155540;23;20229;-82
2024/01/07 05:27:17;;;;;;;2.45;1.63;;;16.00;47.80;;;;;;6130616;23;20154;-83
2024/01/07 05:29:47;;;;;;;2.10;1.75;;;16.00;47.90;;;;;;6179285;23;20154;-83
2024/01/07 05:32:16;;;;;;;2.30;2.10;;;16.00;47.80;;;;;;6130771;23;20149;-83
2024/01/07 05:34:42;;;;;;;2.20;2.00;;;16.00;47.70;;;;;;6155122;23;20161;-83
2024/01/07 05:39:38;;;;;;;2.28;1.90;;;16.00;47.60;;;;;;6207841;22;20221;-84
2024/01/07 05:42:11;;;;;;;2.45;2.00;;;16.10;47.70;;;;;;6181147;23;20146;-84
2024/01/07 05:44:37;;;;;;;2.20;1.88;;;16.00;47.50;;;;;;6155242;23;20150;-84
2024/01/07 05:47:07;;;;;;;2.67;2.17;;;16.00;47.70;;;;;;6156184;23;20174;-84
2024/01/07 05:49:36;;;;;;;2.10;1.80;;;15.90;47.50;;;;;;6130613;23;20488;-84
2024/01/07 05:52:08;;;;;;;2.28;1.92;;;16.00;47.70;;;;;;6155446;23;20154;-84
2024/01/07 05:54:35;;;;;;;2.60;2.10;;;16.00;47.60;;;;;;6180868;23;20142;-85
2024/01/07 05:57:05;;;;;;;2.58;2.10;;;15.90;47.60;;;;;;6130934;23;20160;-84
2024/01/07 05:59:32;;;;;;;2.70;2.10;;;15.90;47.50;;;;;;6155515;23;20224;-84
2024/01/07 06:02:05;;;;;;;2.10;1.90;;;16.00;47.60;;;;;;6178857;23;20463;-83
2024/01/07 06:04:31;;;;;;;2.55;1.90;;;16.00;47.50;;;;;;6129766;23;20287;-84
2024/01/07 06:06:58;;;;;;;2.22;1.80;;;16.00;47.60;;;;;;6179178;23;20138;-83
2024/01/07 12:12:01;;;;;;;22.52;3.45;;;17.00;45.10;;;;;;6216151;22;20276;-82
2024/01/07 12:14:32;;;;;;;21.77;3.47;;;17.00;45.60;;;;;;6176267;23;20162;-82
2024/01/07 12:16:58;;;;;;;14.02;3.10;;;16.90;45.90;;;;;;6124634;23;20153;-83
2024/01/07 12:19:29;;;;;;;28.02;4.00;;;16.90;45.30;;;;;;6200940;23;20141;-82
2024/01/07 12:22:09;;;;;;;25.33;3.20;;;16.90;46.20;;;;;;6148718;23;20150;-83
2024/01/07 12:24:44;;;;;;;17.70;3.22;;;17.00;45.80;;;;;;6149581;23;20146;-82
2024/01/07 12:27:10;;;;;;;25.85;3.58;;;17.00;46.00;;;;;;6150332;23;20165;-83
2024/01/07 12:29:41;;;;;;;21.13;3.47;;;16.90;46.10;;;;;;6179242;23;20217;-83
2024/01/07 12:32:15;;;;;;;37.05;3.90;;;16.90;46.50;;;;;;6156430;23;20150;-83
2024/01/07 12:34:46;;;;;;;24.48;3.55;;;16.80;47.20;;;;;;6157999;23;20220;-82
2024/01/07 12:37:20;;;;;;;15.20;2.97;;;16.90;46.90;;;;;;6159872;23;20149;-84
2024/01/07 12:39:47;;;;;;;19.75;3.38;;;16.90;45.50;;;;;;6147705;23;20184;-83
2024/01/07 12:42:35;;;;;;;;;;;;;;;;;;;;;
2024/01/07 12:45:14;;;;;;;23.48;3.15;;;16.90;45.80;;;;;;6029536;23;20178;-83
2024/01/07 12:47:48;;;;;;;24.42;2.80;;;16.90;45.80;;;;;;6038821;23;20154;-83
2024/01/07 12:50:30;;;;;;;24.08;3.35;;;16.90;45.60;;;;;;6029394;23;20158;-83
2024/01/07 12:53:01;;;;;;;18.77;2.70;;;16.90;46.20;;;;;;5985323;23;20151;-83
2024/01/07 12:55:31;;;;;;;21.88;3.15;;;16.90;46.70;;;;;;5976655;24;20162;-83
2024/01/07 12:58:03;;;;;;;19.13;2.92;;;16.90;46.50;;;;;;5972856;24;20155;-84
2024/01/07 13:00:39;;;;;;;18.58;3.28;;;16.90;46.50;;;;;;6025715;23;20150;-83
2024/01/07 13:03:08;;;;;;;14.18;3.05;;;16.90;46.10;;;;;;5998066;24;20158;-84
2024/01/07 13:05:38;;;;;;;14.23;2.58;;;16.90;46.60;;;;;;5973002;24;20191;-84
2024/01/07 13:08:22;;;;;;;10.30;2.60;;;17.00;46.30;;;;;;5973415;24;20203;-84
2024/01/07 13:10:54;;;;;;;21.55;3.00;;;16.90;46.20;;;;;;5940760;23;20205;-83
2024/01/07 13:13:25;;;;;;;18.05;3.00;;;16.90;47.00;;;;;;5998710;24;20182;-83
2024/01/07 13:15:56;;;;;;;16.52;2.58;;;16.90;46.60;;;;;;5997199;24;20155;-83
2024/01/07 13:18:28;;;;;;;18.63;3.05;;;16.90;47.20;;;;;;6011368;23;20167;-83
2024/01/07 13:21:01;;;;;;;12.00;3.00;;;16.90;46.70;;;;;;5979505;23;20155;-83
2024/01/07 13:23:40;;;;;;;17.45;2.80;;;16.80;46.60;;;;;;5948456;24;20166;-84
2024/01/07 13:26:20;;;;;;;14.88;3.17;;;16.90;46.50;;;;;;5964082;24;20280;-85
2024/01/07 13:29:24;;;;;;;16.85;2.83;;;16.90;46.60;;;;;;5957699;24;20172;-85
2024/01/07 13:32:22;;;;;;;;;;;;;;;;;;;;;
2024/01/07 13:35:00;;;;;;;16.10;2.90;;;16.90;46.40;;;;;;5848996;24;20154;-83
2024/01/07 13:37:43;;;;;;;14.43;3.10;;;17.00;46.90;;;;;;5886432;24;20185;-84
2024/01/07 13:40:29;;;;;;;10.80;2.88;;;17.00;46.10;;;;;;5844363;24;20158;-83
2024/01/07 13:43:27;;;;;;;;;;;;;;;;;;;;;
2024/01/07 13:46:40;;;;;;;17.50;3.08;;;17.00;46.70;;;;;;5920537;24;20195;-82
2024/01/07 13:49:59;;;;;;;;;;;;;;;;;;;;;
2024/01/07 15:05:25;;;;;;;9.60;2.85;;;16.90;45.90;;;;;;6186694;22;20212;31
2024/01/07 15:08:18;;;;;;;12.57;2.65;;;17.00;46.30;;;;;;6082350;23;20197;-83
2024/01/07 15:11:42;;;;;;;15.82;3.08;;;16.90;46.30;;;;;;6113942;23;20168;-84
2024/01/07 15:14:19;;;;;;;14.15;2.90;;;17.00;46.40;;;;;;6108263;23;20204;-83
2024/01/07 15:16:53;;;;;;;12.63;3.00;;;16.90;46.40;;;;;;6006962;23;20157;-84
2024/01/07 15:19:41;;;;;;;12.93;3.05;;;17.00;46.60;;;;;;6009305;23;20604;-83
2024/01/07 15:22:12;;;;;;;11.90;2.60;;;17.00;46.20;;;;;;5979801;23;20162;-84
2024/01/07 15:24:47;;;;;;;10.65;3.00;;;17.00;46.20;;;;;;5944046;24;20178;-87
2024/01/07 15:27:50;;;;;;;14.55;3.22;;;17.00;46.40;;;;;;5942244;24;20163;-85
2024/01/07 15:30:37;;;;;;;14.93;3.30;;;17.00;45.60;;;;;;5932155;24;20152;-85
2024/01/07 15:33:38;;;;;;;9.48;2.88;;;17.00;46.20;;;;;;5914569;24;20825;-86
2024/01/07 15:36:20;;;;;;;12.68;3.38;;;17.00;46.60;;;;;;5891225;24;20232;-87
2024/01/07 15:39:05;;;;;;;12.52;2.97;;;17.00;47.50;;;;;;5890566;24;20160;-87
2024/01/07 15:41:55;;;;;;;15.02;2.92;;;17.00;47.70;;;;;;5890407;24;20160;-85
2024/01/07 15:44:35;;;;;;;8.23;2.47;;;17.00;47.80;;;;;;5892290;24;20272;-86
2024/01/07 15:47:08;;;;;;;11.23;2.70;;;17.00;47.30;;;;;;5893296;24;20259;-87
2024/01/07 15:49:34;;;;;;;9.52;2.70;;;17.00;46.80;;;;;;5961704;24;20680;-83
2024/01/07 15:52:04;;;;;;;14.02;3.03;;;17.00;46.50;;;;;;5955343;24;20173;-84
2024/01/07 15:54:33;;;;;;;11.48;2.65;;;17.00;46.50;;;;;;5913732;24;20157;-86
2024/01/07 15:57:09;;;;;;;7.68;2.75;;;17.00;46.90;;;;;;5993603;23;20161;-84
2024/01/07 15:59:36;;;;;;;7.95;2.80;;;17.10;45.70;;;;;;5944773;24;20151;-84
2024/01/07 16:02:02;;;;;;;7.70;2.83;;;17.00;47.00;;;;;;5987506;23;20238;-83
2024/01/07 16:04:30;;;;;;;9.30;2.40;;;17.10;46.30;;;;;;6032532;23;20150;-84
2024/01/07 16:06:56;;;;;;;12.50;2.60;;;17.10;46.90;;;;;;6017939;23;20197;-85
2024/01/07 16:09:22;;;;;;;18.35;2.88;;;17.20;47.20;;;;;;6043303;23;20150;-84
2024/01/07 16:12:01;;;;;;;14.20;2.85;;;17.10;48.20;;;;;;6044693;23;20157;-85
2024/01/07 16:14:42;;;;;;;;;;;;;;;;;;;;;
2024/01/07 16:17:15;;;;;;;12.20;2.75;;;17.10;48.00;;;;;;6002686;23;20190;-83
2024/01/07 16:20:33;;;;;;;14.15;2.72;;;17.00;47.30;;;;;;5941092;24;20161;-84
2024/01/07 16:23:06;;;;;;;8.30;2.30;;;17.10;47.40;;;;;;5937724;24;20153;-84
2024/01/07 16:26:17;;;;;;;12.52;3.30;;;17.10;47.50;;;;;;5940078;24;20869;-86
2024/01/07 16:28:50;;;;;;;8.68;3.03;;;17.00;47.40;;;;;;5893866;24;20239;-84
2024/01/07 16:32:14;;;;;;;10.05;3.70;;;17.10;47.70;;;;;;5967386;24;20536;-84
2024/01/07 16:35:00;;;;;;;15.75;3.40;;;17.00;46.90;;;;;;5966349;24;20215;-84
2024/01/07 16:37:35;;;;;;;6.63;3.40;;;17.10;47.00;;;;;;5875206;24;20172;-83
2024/01/07 16:40:17;;;;;;;7.68;3.42;;;17.00;46.90;;;;;;5893231;24;20168;-84
2024/01/07 16:43:10;;;;;;;;;;;;;;;;;;;;;
2024/01/07 16:45:54;;;;;;;8.68;3.92;;;17.00;46.30;;;;;;5950334;24;20186;-86
2024/01/07 16:48:33;;;;;;;9.50;3.83;;;17.00;45.40;;;;;;6012391;23;20187;-84
2024/01/07 16:50:59;;;;;;;8.98;3.80;;;16.90;45.80;;;;;;6034817;23;20180;-81
2024/01/07 16:53:39;;;;;;;7.22;3.70;;;17.00;45.70;;;;;;6031178;23;20168;-83
2024/01/07 16:56:45;;;;;;;9.18;3.40;;;17.00;46.30;;;;;;6025427;23;20158;-83
2024/01/07 17:00:06;;;;;;;7.57;3.40;;;17.00;45.80;;;;;;5973802;24;20249;-84
2024/01/07 17:02:40;;;;;;;9.98;3.53;;;17.00;45.80;;;;;;5967443;24;20164;-82
2024/01/07 17:06:02;;;;;;;10.60;4.05;;;17.10;46.50;;;;;;5921110;24;20184;-83
2024/01/07 17:09:15;;;;;;;8.65;3.88;;;17.10;45.40;;;;;;5867877;24;20153;-83
2024/01/07 17:12:23;;;;;;;;;;;;;;;;;;;;;
2024/01/07 17:14:55;;;;;;;8.82;3.65;;;17.10;47.00;;;;;;5866883;24;20183;-82
2024/01/07 17:18:03;;;;;;;12.00;3.80;;;17.10;47.00;;;;;;5863417;24;20150;-82
2024/01/07 18:02:17;;;;;;;7.90;3.90;;;17.00;46.50;;;;;;6228797;22;20205;-82
2024/01/07 18:12:43;;;;;;;9.50;4.25;;;17.00;46.20;;;;;;6215231;22;20267;-80
2024/01/07 18:15:16;;;;;;;9.90;4.00;;;17.00;47.60;;;;;;6124846;23;20176;-79
2024/01/07 18:17:45;;;;;;;9.00;4.07;;;17.00;47.40;;;;;;6102213;23;20146;-78
2024/01/07 18:20:11;;;;;;;6.30;3.45;;;17.00;46.90;;;;;;6174294;23;20621;-81
2024/01/07 18:22:40;;;;;;;14.18;3.90;;;17.00;47.30;;;;;;6172545;23;20153;-78
2024/01/07 18:25:06;;;;;;;9.48;4.00;;;17.00;47.30;;;;;;6126712;23;20597;-76
2024/01/07 18:27:34;;;;;;;10.45;3.95;;;17.00;47.30;;;;;;6201003;23;20138;-77
2024/01/07 18:32:36;;;;;;;6.50;3.85;;;17.00;46.90;;;;;;6198270;23;20256;-78
2024/01/07 18:35:03;;;;;;;6.72;3.45;;;17.00;46.60;;;;;;6175582;23;20153;-78
2024/01/07 18:37:30;;;;;;;8.23;3.85;;;17.00;46.70;;;;;;6197017;23;20157;-79
2024/01/07 18:39:57;;;;;;;8.90;3.78;;;17.00;47.00;;;;;;6149541;23;20138;-82
2024/01/07 18:42:28;;;;;;;7.53;3.55;;;17.00;46.90;;;;;;6149252;23;20173;-83
2024/01/07 18:45:02;;;;;;;6.93;3.70;;;17.00;46.60;;;;;;6102465;23;20162;-82
2024/01/07 18:47:28;;;;;;;6.95;3.92;;;17.00;45.70;;;;;;6104008;23;20181;-84
2024/01/07 18:50:00;;;;;;;6.95;3.95;;;17.00;44.80;;;;;;6178913;23;20180;-81
2024/01/07 18:52:40;;;;;;;7.10;4.35;;;17.00;45.90;;;;;;6129991;23;20220;-80
2024/01/07 18:55:08;;;;;;;5.75;4.00;;;17.00;45.80;;;;;;6133654;23;20181;-82
2024/01/07 18:57:35;;;;;;;9.23;3.67;;;17.00;45.80;;;;;;6155808;23;20153;-82
2024/01/07 19:00:03;;;;;;;6.82;3.80;;;17.00;46.00;;;;;;6156221;23;20489;-83
2024/01/07 19:02:31;;;;;;;9.13;4.20;;;17.00;45.70;;;;;;6154916;23;20147;-82
2024/01/07 19:04:57;;;;;;;6.70;4.20;;;17.00;45.60;;;;;;6128209;23;20270;-83
2024/01/07 19:07:29;;;;;;;6.50;3.90;;;17.00;45.50;;;;;;6118389;23;20151;-82
2024/01/07 19:10:00;;;;;;;8.23;4.40;;;17.10;45.70;;;;;;6045865;23;20170;-83
2024/01/07 19:12:28;;;;;;;7.78;4.18;;;17.10;45.40;;;;;;6094438;23;20182;-82
2024/01/07 19:14:58;;;;;;;7.43;4.05;;;17.00;45.30;;;;;;6093780;23;20151;-82
2024/01/07 19:17:33;;;;;;;6.90;3.97;;;17.00;44.90;;;;;;6070844;23;20161;-82
2024/01/07 19:20:04;;;;;;;8.82;3.97;;;17.00;45.70;;;;;;6095385;23;20151;-82
2024/01/07 19:22:34;;;;;;;6.30;3.92;;;17.00;45.80;;;;;;6113768;23;20706;-84
2024/01/07 19:25:03;;;;;;;4.82;3.53;;;17.00;45.80;;;;;;6083802;23;20160;-84
2024/01/07 19:27:29;;;;;;;6.63;3.50;;;17.00;46.80;;;;;;6080620;23;20626;-84
2024/01/07 19:29:55;;;;;;;5.05;3.58;;;17.00;46.30;;;;;;6131783;23;20155;-84
2024/01/07 19:32:23;;;;;;;4.75;3.70;;;17.00;46.30;;;;;;6132744;23;20208;-84
2024/01/07 19:34:54;;;;;;;4.30;3.40;;;16.90;46.10;;;;;;6083239;23;20244;-85
2024/01/07 19:37:20;;;;;;;7.20;3.72;;;16.90;46.60;;;;;;6087476;23;20617;-85
2024/01/07 19:39:49;;;;;;;6.55;3.47;;;16.90;47.00;;;;;;6160425;23;20147;-85
2024/01/07 19:42:15;;;;;;;6.63;3.65;;;16.90;46.60;;;;;;6160736;23;20154;-85
2024/01/07 19:44:44;;;;;;;8.20;3.67;;;16.90;46.50;;;;;;6135958;23;20616;-85
2024/01/07 19:47:11;;;;;;;4.95;3.50;;;16.90;46.30;;;;;;6112360;23;20198;-85
2024/01/07 19:49:38;;;;;;;6.20;3.95;;;16.90;46.20;;;;;;6135650;23;20173;-85
2024/01/07 19:52:04;;;;;;;6.82;4.20;;;16.90;45.80;;;;;;6111763;23;20594;-85
2024/01/07 19:54:31;;;;;;;4.03;3.00;;;17.00;45.80;;;;;;6072741;23;20160;-84
2024/01/07 19:56:58;;;;;;;8.02;3.35;;;16.90;46.20;;;;;;6072299;23;20161;-85
2024/01/07 19:59:29;;;;;;;6.70;3.60;;;16.90;46.40;;;;;;6073369;23;20584;-85
2024/01/07 20:01:57;;;;;;;8.32;3.50;;;16.90;46.30;;;;;;6081804;23;20145;-84
2024/01/07 20:04:27;;;;;;;6.70;3.75;;;16.90;46.70;;;;;;6084477;23;20152;-84
2024/01/07 20:07:04;;;;;;;8.30;3.92;;;16.90;45.90;;;;;;6084575;23;20184;-84
2024/01/07 20:09:44;;;;;;;6.22;3.33;;;16.90;46.40;;;;;;6050731;23;20150;-85
2024/01/07 20:12:36;;;;;;;6.30;3.45;;;16.90;46.80;;;;;;6055867;23;20160;-84
2024/01/07 20:15:08;;;;;;;6.68;3.80;;;16.90;46.20;;;;;;6079296;23;20157;-84
2024/01/07 20:17:44;;;;;;;6.90;3.65;;;16.90;46.30;;;;;;6031379;23;20221;-85
2024/01/07 20:20:22;;;;;;;5.10;3.50;;;16.90;46.10;;;;;;6078702;23;20152;-86
2024/01/07 20:23:26;;;;;;;5.57;4.05;;;16.90;46.20;;;;;;6056087;23;20710;-84
2024/01/07 20:26:03;;;;;;;6.55;3.72;;;16.90;46.00;;;;;;6078209;23;20188;-85
2024/01/07 20:28:56;;;;;;;4.43;3.80;;;16.80;45.80;;;;;;6010837;23;20153;-84
2024/01/07 20:31:29;;;;;;;5.47;4.20;;;16.80;46.30;;;;;;5998534;23;20598;-85
2024/01/07 20:34:14;;;;;;;5.70;3.95;;;16.90;45.80;;;;;;6040239;23;20149;-84
2024/01/07 20:36:47;;;;;;;5.28;3.85;;;16.90;45.80;;;;;;6006703;23;20194;-85
2024/01/07 20:39:21;;;;;;;5.97;3.70;;;16.90;46.10;;;;;;6026402;23;20149;-84
2024/01/07 20:41:56;;;;;;;6.47;3.83;;;16.80;45.60;;;;;;6003928;23;20150;-84
2024/01/07 20:44:29;;;;;;;5.28;4.00;;;16.80;45.90;;;;;;6034766;23;20156;-85
2024/01/07 20:46:57;;;;;;;7.60;3.83;;;16.80;46.20;;;;;;6016986;23;20543;-85
2024/01/07 20:49:26;;;;;;;6.15;3.78;;;16.80;46.20;;;;;;5993110;24;20152;-84
2024/01/07 20:51:54;;;;;;;5.47;3.95;;;16.80;45.80;;;;;;6016740;23;20155;-84
2024/01/07 20:54:31;;;;;;;6.55;3.67;;;16.80;45.90;;;;;;6016306;23;20249;-84
2024/01/07 20:57:00;;;;;;;5.40;4.03;;;16.80;46.20;;;;;;5918697;24;20171;-84
2024/01/07 20:59:29;;;;;;;5.28;3.35;;;16.80;46.20;;;;;;5932896;24;20157;-85
2024/01/07 21:02:11;;;;;;;5.60;3.97;;;16.70;46.60;;;;;;5928366;24;20152;-84
2024/01/07 21:04:50;;;;;;;5.47;3.78;;;16.80;45.90;;;;;;5914360;24;20160;-84
2024/01/07 21:07:16;;;;;;;6.40;3.97;;;16.70;45.80;;;;;;5908393;24;20199;-85
2024/01/07 21:09:44;;;;;;;6.53;3.60;;;16.70;45.90;;;;;;5864249;24;20178;-85
2024/01/07 21:12:15;;;;;;;5.57;3.38;;;16.70;46.80;;;;;;5858895;24;20158;-84
2024/01/07 21:14:46;;;;;;;5.68;3.58;;;16.70;46.40;;;;;;5881253;24;20162;-84
2024/01/07 21:17:12;;;;;;;4.97;3.55;;;16.70;46.60;;;;;;5880699;24;20559;-85
2024/01/07 21:19:42;;;;;;;6.78;3.30;;;16.70;46.80;;;;;;5836653;24;20162;-85
2024/01/07 21:22:14;;;;;;;6.22;3.35;;;16.70;47.00;;;;;;5923150;24;20153;-84
2024/01/07 21:24:42;;;;;;;4.55;3.13;;;16.60;47.00;;;;;;5958765;24;20689;-86
2024/01/07 21:27:14;;;;;;;4.38;3.35;;;16.70;46.90;;;;;;5913448;24;20245;-84
2024/01/07 21:30:02;;;;;;;4.68;3.10;;;16.60;47.00;;;;;;5938008;24;20153;-85
2024/01/07 21:32:36;;;;;;;5.35;3.40;;;16.60;47.40;;;;;;5996300;23;20207;-84
2024/01/07 21:35:06;;;;;;;5.43;3.55;;;16.60;47.10;;;;;;6052787;23;20221;-84
2024/01/07 21:37:39;;;;;;;6.10;3.40;;;16.60;47.10;;;;;;6060061;23;20577;-84
2024/01/07 21:40:05;;;;;;;4.47;3.00;;;16.60;46.80;;;;;;6131926;23;20156;-84
2024/01/07 21:42:46;;;;;;;3.90;3.35;;;16.60;47.30;;;;;;6112522;23;20156;-85
2024/01/07 21:45:21;;;;;;;4.80;3.63;;;16.60;47.30;;;;;;6004720;23;20218;-84
2024/01/07 21:48:10;;;;;;;5.20;3.20;;;16.50;47.30;;;;;;5992343;23;20162;-84
2024/01/07 21:50:48;;;;;;;5.13;3.53;;;16.60;46.90;;;;;;5993100;24;20132;-85
2024/01/07 21:53:39;;;;;;;4.50;3.20;;;16.50;47.20;;;;;;5993459;23;20166;-85
2024/01/07 21:56:16;;;;;;;4.60;3.17;;;16.50;47.10;;;;;;5993887;23;20164;-84
2024/01/07 21:58:51;;;;;;;4.32;3.60;;;16.50;47.10;;;;;;5992256;24;20180;-84
2024/01/07 22:01:20;;;;;;;4.43;2.97;;;16.50;47.30;;;;;;5993434;23;20182;-84
2024/01/07 22:03:46;;;;;;;3.90;3.15;;;16.50;47.30;;;;;;5968778;24;20225;-85
2024/01/07 22:06:15;;;;;;;5.65;3.35;;;16.50;47.50;;;;;;5969499;24;20191;-84
2024/01/07 22:08:47;;;;;;;3.92;3.15;;;16.40;47.40;;;;;;5980570;23;20156;-84
2024/01/07 22:11:18;;;;;;;4.32;3.28;;;16.50;47.30;;;;;;5992053;24;20184;-84
2024/01/07 22:13:48;;;;;;;6.13;3.63;;;16.40;47.50;;;;;;5923283;24;20160;-85
2024/01/07 22:16:18;;;;;;;5.30;3.47;;;16.50;47.10;;;;;;5984829;23;20162;-84
2024/01/07 22:18:48;;;;;;;5.93;3.72;;;16.40;47.20;;;;;;6043952;23;20151;-85
2024/01/07 22:21:18;;;;;;;5.53;3.30;;;16.40;47.10;;;;;;6142399;23;20149;-84
2024/01/07 22:23:54;;;;;;;5.32;3.50;;;16.40;47.00;;;;;;6142338;23;20579;-84
2024/01/07 22:26:28;;;;;;;4.45;3.35;;;16.40;47.40;;;;;;6166602;23;20174;-84
2024/01/07 22:28:53;;;;;;;5.25;3.60;;;16.40;47.20;;;;;;6142217;23;20211;-84
2024/01/07 22:31:22;;;;;;;4.63;3.53;;;16.40;47.20;;;;;;6096328;23;20195;-85
2024/01/07 22:34:01;;;;;;;4.60;3.20;;;16.40;47.20;;;;;;6087732;23;20222;-84
2024/01/07 22:36:30;;;;;;;6.10;3.97;;;16.30;47.20;;;;;;6056168;23;20243;-84
2024/01/07 22:38:58;;;;;;;5.63;3.60;;;16.40;47.20;;;;;;6026207;23;20510;-84
2024/01/07 22:41:30;;;;;;;6.40;3.50;;;16.40;47.80;;;;;;6014960;23;20156;-84
2024/01/07 22:43:59;;;;;;;4.70;3.30;;;16.40;47.50;;;;;;5992601;24;20160;-84
2024/01/07 22:46:28;;;;;;;4.32;3.63;;;16.40;47.50;;;;;;5924287;24;20195;-84
2024/01/07 22:49:08;;;;;;;4.72;3.10;;;16.40;47.30;;;;;;5963997;24;20152;-85
2024/01/07 22:51:43;;;;;;;5.50;3.72;;;16.40;47.50;;;;;;5937705;24;20152;-84
2024/01/07 22:54:44;;;;;;;4.80;3.75;;;16.30;47.50;;;;;;5937281;24;20152;-85
2024/01/07 22:57:13;;;;;;;6.38;3.60;;;16.40;47.30;;;;;;5914768;24;20165;-84